Terminal Aerodrome Forecast
Issued by NWS Midland/Odessa, TX

Home | Current Version | Previous Version | Text Only | Print | Product List | Glossary On
Versions: 1 2 3 4 5 6 7 8 9 10 11 12 13 14 15 16 17 18 19 20 21 22 23 24 25 26
878
FTUS44 KMAF 172340 CCB
TAFMAF
TAF COR
KMAF 172340Z 1800/1824 03005KT 6SM -RA BR OVC035
      TEMPO 1800/1804 2SM RA BR OVC025
     FM180400 VRB04KT 6SM BR OVC008
     FM180700 VRB03KT 2SM BR OVC002=

USA.gov is the U.S. government's official web portal to all federal, state and local government web resources and services.